Mount Hersey, Arkansas
Current Conditions -  °F | °C
As of 8:53 AM on Sunday 23 Nov 2014 (Local Time) from KHRO Reporting Station
Overcast Overcast  
Wind Chill: 54°   Ceiling: 700
Heat Index: 54°   Visibility: 7mi
Dew Point: 54°   Wind: 9mph
Humidity: 100%   Direction: 170°S
Pressure: 29.58"   Gusts: NA
Location:  36.0414°N, 92.9867°W
Report Text: KHRO 231453Z AUTO 17008KT 7SM OVC007 12/12 A2958 RMK AO2 CIG 006V010 SLP013 60000 T01220122 55015
Loading
Personal Weather Stations






























Interactive Weather Map New forecast layout! Learn more

10-Day Weather Forecast

Advertisements
Track Severe Weather on mobile